Time;durP1;ratioP1;P1;durP2;ratioP2;P2;SDS_P1;SDS_P2;PMS_P1;PMS_P2;Temp;Humidity;BMP_temperature;BMP_pressure;BME280_temperature;BME280_humidity;BME280_pressure;Samples;Min_cycle;Max_cycle;Signal;HPM_P1;HPM_P2
2020/12/12 00:00:10;;;;;;;53.45;29.52;;;;;;;-0.90;100.00;93870.22;1022370;28;20031;-68
2020/12/12 00:00:40;;;;;;;56.67;30.03;;;;;;;-0.85;100.00;93870.28;1026123;28;20096;-69
2020/12/12 00:01:14;;;;;;;57.03;30.27;;;;;;;-0.87;100.00;93867.94;1026561;28;20039;-69
2020/12/12 00:01:47;;;;;;;52.95;29.05;;;;;;;-0.91;100.00;93863.50;1026090;28;20077;-67
2020/12/12 00:02:17;;;;;;;53.28;28.95;;;;;;;-0.89;100.00;93879.50;1026299;28;20026;-67
2020/12/12 00:02:49;;;;;;;55.33;29.80;;;;;;;-0.87;100.00;93875.66;1023204;28;20032;-70
2020/12/12 00:03:19;;;;;;;57.20;29.85;;;;;;;-0.85;100.00;93880.56;1034204;28;20394;-68
2020/12/12 00:03:49;;;;;;;53.87;28.63;;;;;;;-0.95;100.00;93863.19;1034551;28;20030;-71
2020/12/12 00:04:20;;;;;;;55.50;29.03;;;;;;;-0.85;100.00;93883.16;1026256;28;20042;-71
2020/12/12 00:04:50;;;;;;;56.97;30.33;;;;;;;-0.90;100.00;93873.56;1026145;28;20030;-69
2020/12/12 00:05:21;;;;;;;55.23;29.47;;;;;;;-0.87;100.00;93885.16;1030338;28;20021;-72
2020/12/12 00:05:51;;;;;;;52.23;30.60;;;;;;;-0.87;100.00;93875.66;1022344;28;20496;-67
2020/12/12 00:06:22;;;;;;;59.70;30.47;;;;;;;-0.87;100.00;93883.41;1019830;28;20038;-67
2020/12/12 00:06:52;;;;;;;56.17;30.70;;;;;;;-0.84;100.00;93879.53;1025887;28;20069;-69
2020/12/12 00:07:24;;;;;;;55.40;29.67;;;;;;;-0.94;100.00;93867.31;1026255;28;20077;-70
2020/12/12 00:07:54;;;;;;;56.60;30.00;;;;;;;-0.87;100.00;93875.66;1026246;28;20026;-68
2020/12/12 00:08:25;;;;;;;63.27;31.40;;;;;;;-0.86;100.00;93876.44;1022163;28;20065;-71
2020/12/12 00:08:55;;;;;;;61.57;31.43;;;;;;;-0.89;100.00;93872.53;1026144;28;20126;-69
2020/12/12 00:09:26;;;;;;;49.63;29.00;;;;;;;-0.86;100.00;93872.06;1022440;29;20046;-69
2020/12/12 00:09:56;;;;;;;54.87;29.93;;;;;;;-0.92;100.00;93867.88;1026236;28;20471;-71
2020/12/12 00:10:27;;;;;;;57.10;31.07;;;;;;;-0.84;100.00;93880.34;1030222;28;20025;-71
2020/12/12 00:10:58;;;;;;;54.67;29.93;;;;;;;-0.83;100.00;93879.31;1030405;28;20124;-69
2020/12/12 00:11:29;;;;;;;57.20;30.67;;;;;;;-0.82;100.00;93882.66;1033780;28;20511;-70
2020/12/12 00:12:00;;;;;;;55.03;30.07;;;;;;;-0.92;100.00;93867.09;1030476;28;20023;-69
2020/12/12 00:12:30;;;;;;;55.33;31.43;;;;;;;-0.83;100.00;93883.69;1038598;28;20014;-70
2020/12/12 00:13:01;;;;;;;53.37;30.83;;;;;;;-0.83;100.00;93886.28;1034274;28;20022;-70
2020/12/12 00:13:31;;;;;;;56.23;31.37;;;;;;;-0.84;100.00;93882.91;1030621;28;20072;-70
2020/12/12 00:14:02;;;;;;;62.70;32.60;;;;;;;-0.95;100.00;93866.53;1026100;28;20380;-69
2020/12/12 00:14:32;;;;;;;55.33;30.73;;;;;;;-0.82;100.00;93882.66;1022284;29;20039;-67
2020/12/12 00:15:04;;;;;;;55.73;31.93;;;;;;;-0.82;100.00;93883.44;1022311;29;20023;-71
2020/12/12 00:15:36;;;;;;;53.47;29.92;;;;;;;-1.05;100.00;93850.19;1022242;29;20073;-68
2020/12/12 00:16:06;;;;;;;58.78;30.73;;;;;;;-0.89;100.00;93872.53;1014486;29;20460;-68
2020/12/12 00:16:37;;;;;;;55.63;29.53;;;;;;;-0.89;100.00;93875.13;1026303;28;20098;-68
2020/12/12 00:17:07;;;;;;;59.07;32.30;;;;;;;-0.81;100.00;93882.41;1026285;28;20026;-69
2020/12/12 00:17:38;;;;;;;51.63;29.03;;;;;;;-0.82;100.00;93878.28;1026277;28;20093;-68
2020/12/12 00:18:08;;;;;;;60.13;31.47;;;;;;;-0.89;100.00;93872.53;1030386;28;20027;-68
2020/12/12 00:18:39;;;;;;;60.43;32.17;;;;;;;-0.94;100.00;93864.75;1030359;28;20541;-69
2020/12/12 00:19:10;;;;;;;60.00;31.80;;;;;;;-0.86;100.00;93879.03;1030338;28;20034;-69
2020/12/12 00:19:40;;;;;;;56.63;29.40;;;;;;;-0.84;100.00;93875.19;1030225;28;20029;-71
2020/12/12 00:20:11;;;;;;;59.17;31.17;;;;;;;-0.95;100.00;93865.75;1030361;28;20270;-67
2020/12/12 00:20:42;;;;;;;59.50;31.70;;;;;;;-0.88;100.00;93878.47;1022201;28;20379;-68
2020/12/12 00:21:13;;;;;;;65.60;33.03;;;;;;;-1.14;100.00;93838.72;1026445;28;20034;-68
2020/12/12 00:21:43;;;;;;;63.43;33.43;;;;;;;-1.06;100.00;93853.78;1025381;28;20071;-70
2020/12/12 00:22:14;;;;;;;60.33;32.23;;;;;;;-0.88;100.00;93879.25;1022380;29;20028;-68
2020/12/12 00:22:44;;;;;;;58.27;31.83;;;;;;;-0.89;100.00;93882.84;1022242;28;20015;-68
2020/12/12 00:23:15;;;;;;;56.43;31.40;;;;;;;-1.00;100.00;93861.34;1022533;28;20504;-70
2020/12/12 00:23:45;;;;;;;63.27;33.53;;;;;;;-0.95;100.00;93871.69;1018155;28;20032;-70
2020/12/12 00:24:16;;;;;;;63.57;31.60;;;;;;;-0.90;100.00;93880.50;1026338;28;20025;-69
2020/12/12 00:24:46;;;;;;;60.33;31.77;;;;;;;-0.94;100.00;93875.03;1022500;29;20531;-69
2020/12/12 00:25:17;;;;;;;66.97;33.93;;;;;;;-0.91;100.00;93879.72;1026318;28;20027;-67
2020/12/12 00:25:47;;;;;;;66.80;35.33;;;;;;;-0.88;100.00;93879.25;1030322;28;20113;-72
2020/12/12 00:26:25;;;;;;;63.67;34.37;;;;;;;-0.90;100.00;93875.38;1026348;28;20487;-68
2020/12/12 00:26:56;;;;;;;71.70;35.08;;;;;;;-0.91;100.00;93872.00;1023571;28;20031;-70
2020/12/12 00:27:27;;;;;;;67.22;35.70;;;;;;;-0.89;100.00;93872.53;1022480;29;20500;-70
2020/12/12 00:27:57;;;;;;;67.33;35.77;;;;;;;-0.90;100.00;93865.84;1019475;29;20043;-70
2020/12/12 00:28:31;;;;;;;67.47;35.07;;;;;;;-0.96;100.00;93856.50;1024177;28;20027;-69
2020/12/12 00:29:01;;;;;;;67.10;35.90;;;;;;;-0.88;100.00;93868.94;1026199;28;20027;-68
2020/12/12 00:29:32;;;;;;;67.83;35.63;;;;;;;-0.85;100.00;93868.47;1026870;28;20460;-69
2020/12/12 00:30:03;;;;;;;65.40;33.23;;;;;;;-0.95;100.00;93855.47;1029628;28;20066;-69
2020/12/12 00:30:34;;;;;;;67.97;34.03;;;;;;;-0.97;100.00;93857.50;1030922;28;20014;-69
2020/12/12 00:31:04;;;;;;;60.57;33.57;;;;;;;-0.86;100.00;93874.66;1030290;28;20404;-69
2020/12/12 00:31:35;;;;;;;63.50;32.87;;;;;;;-0.88;100.00;93876.66;1029991;28;20034;-68
2020/12/12 00:32:05;;;;;;;64.00;32.67;;;;;;;-0.97;100.00;93858.28;1029973;28;20026;-69
2020/12/12 00:32:36;;;;;;;61.37;32.83;;;;;;;-0.89;100.00;93872.53;1026360;28;20685;-70
2020/12/12 00:33:06;;;;;;;65.07;33.77;;;;;;;-0.94;100.00;93867.31;1026308;28;20019;-70
2020/12/12 00:33:37;;;;;;;59.03;33.27;;;;;;;-0.89;100.00;93869.97;1026223;28;20050;-69
2020/12/12 00:34:07;;;;;;;59.73;32.70;;;;;;;-0.92;100.00;93867.88;1026089;28;20019;-68
2020/12/12 00:34:38;;;;;;;70.13;35.13;;;;;;;-0.90;100.00;93865.84;1026236;28;20054;-69
2020/12/12 00:35:08;;;;;;;66.83;35.10;;;;;;;-0.89;100.00;93862.25;1022452;28;20019;-67
2020/12/12 00:35:39;;;;;;;64.43;32.63;;;;;;;-0.89;100.00;93861.47;1026343;28;20047;-68
2020/12/12 00:36:09;;;;;;;68.27;35.03;;;;;;;-0.88;100.00;93858.66;1034172;28;20021;-71
2020/12/12 00:36:40;;;;;;;71.13;35.83;;;;;;;-0.88;100.00;93863.03;1030211;28;20014;-70
2020/12/12 00:37:11;;;;;;;64.50;34.60;;;;;;;-0.89;100.00;93857.09;1026500;28;20041;-70
2020/12/12 00:37:41;;;;;;;59.80;33.03;;;;;;;-0.88;100.00;93857.88;1030078;28;20027;-69
2020/12/12 00:38:12;;;;;;;65.17;34.93;;;;;;;-0.90;100.00;93852.97;1026416;28;20393;-69
2020/12/12 00:38:43;;;;;;;62.57;33.93;;;;;;;-0.93;100.00;93852.66;1026162;28;20026;-68
2020/12/12 00:39:13;;;;;;;68.10;34.47;;;;;;;-0.88;100.00;93856.06;1026356;28;20018;-67
2020/12/12 00:39:45;;;;;;;60.70;31.67;;;;;;;-0.90;100.00;93847.81;1026365;28;20022;-71
2020/12/12 00:40:15;;;;;;;63.10;32.78;;;;;;;-0.99;100.00;93836.38;1022664;28;20051;-69
2020/12/12 00:40:46;;;;;;;61.43;34.10;;;;;;;-0.89;100.00;93840.88;1026504;28;20027;-71
2020/12/12 00:41:16;;;;;;;64.10;32.33;;;;;;;-0.88;100.00;93845.00;1026316;28;20093;-70
2020/12/12 00:41:47;;;;;;;63.10;33.03;;;;;;;-0.98;100.00;93825.06;1025654;28;20444;-69
2020/12/12 00:42:17;;;;;;;66.30;34.57;;;;;;;-0.87;100.00;93846.53;1022281;28;20019;-68
2020/12/12 00:42:47;;;;;;;68.23;34.70;;;;;;;-0.86;100.00;93850.69;1030321;28;20019;-69
2020/12/12 00:43:18;;;;;;;66.30;33.23;;;;;;;-0.94;100.00;93828.69;1026108;28;20023;-71
2020/12/12 00:43:48;;;;;;;60.43;33.40;;;;;;;-0.94;100.00;93826.13;1026458;28;20451;-68
2020/12/12 00:44:19;;;;;;;60.87;32.83;;;;;;;-0.86;100.00;93841.19;1029913;28;20107;-68
2020/12/12 00:44:49;;;;;;;65.13;34.40;;;;;;;-0.91;100.00;93833.38;1026362;28;20041;-70
2020/12/12 00:45:20;;;;;;;66.67;34.40;;;;;;;-0.87;100.00;93847.34;1030283;28;20057;-71
2020/12/12 00:45:51;;;;;;;65.67;34.13;;;;;;;-0.89;100.00;93836.50;1030341;28;20450;-68
2020/12/12 00:46:21;;;;;;;65.07;34.97;;;;;;;-0.95;100.00;93827.16;1026183;28;20049;-69
2020/12/12 00:46:52;;;;;;;66.77;33.87;;;;;;;-0.87;100.00;93842.19;1022193;28;20031;-69
2020/12/12 00:47:22;;;;;;;63.17;33.73;;;;;;;-0.92;100.00;93839.53;1018163;29;20016;-70
2020/12/12 00:47:53;;;;;;;66.07;34.27;;;;;;;-0.88;100.00;93845.00;1018726;28;20028;-68
2020/12/12 00:48:23;;;;;;;66.07;34.97;;;;;;;-0.97;100.00;93834.34;1022253;28;20030;-69
2020/12/12 00:48:54;;;;;;;69.37;35.50;;;;;;;-0.88;100.00;93842.44;1026003;28;20027;-68
2020/12/12 00:49:24;;;;;;;65.37;34.13;;;;;;;-0.87;100.00;93849.13;1021790;28;20020;-66
2020/12/12 00:49:55;;;;;;;65.07;34.10;;;;;;;-0.98;100.00;93833.53;1026090;28;20035;-68
2020/12/12 00:50:25;;;;;;;64.47;34.17;;;;;;;-0.88;100.00;93850.91;1022155;29;20381;-69
2020/12/12 00:50:56;;;;;;;65.20;33.77;;;;;;;-0.86;100.00;93855.84;1029945;28;20117;-71
2020/12/12 00:51:26;;;;;;;66.10;32.83;;;;;;;-0.88;100.00;93848.34;1029744;28;20061;-69
2020/12/12 00:51:57;;;;;;;60.13;31.73;;;;;;;-0.88;100.00;93853.50;1030132;28;20597;-68
2020/12/12 00:52:28;;;;;;;62.33;33.20;;;;;;;-0.87;100.00;93847.34;1030052;28;20022;-70
2020/12/12 00:52:58;;;;;;;67.07;33.40;;;;;;;-0.87;100.00;93849.94;1025938;28;20027;-69
2020/12/12 00:53:28;;;;;;;63.07;33.27;;;;;;;-0.86;100.00;93848.91;1026505;28;20019;-70
2020/12/12 00:53:59;;;;;;;64.20;31.73;;;;;;;-0.92;100.00;93841.34;1034163;28;20037;-69
2020/12/12 00:54:30;;;;;;;68.50;35.47;;;;;;;-0.93;100.00;93840.56;1034428;28;20692;-69
2020/12/12 00:55:00;;;;;;;69.53;34.40;;;;;;;-0.87;100.00;93846.53;1033996;28;20026;-71
2020/12/12 00:55:31;;;;;;;61.93;33.00;;;;;;;-0.86;100.00;93840.41;1030072;28;20019;-69
2020/12/12 00:56:01;;;;;;;64.20;33.03;;;;;;;-0.87;100.00;93831.91;1022336;28;20039;-69
2020/12/12 00:56:32;;;;;;;61.93;33.57;;;;;;;-0.98;100.00;93817.31;1026295;28;20084;-69
2020/12/12 00:57:02;;;;;;;69.03;35.00;;;;;;;-0.90;100.00;93831.59;1026188;28;20031;-65
2020/12/12 00:57:33;;;;;;;66.57;34.23;;;;;;;-0.85;100.00;93831.66;1030383;28;20041;-71
2020/12/12 00:58:03;;;;;;;63.73;33.63;;;;;;;-0.85;100.00;93831.66;1026069;28;20033;-69
2020/12/12 00:58:34;;;;;;;61.00;32.87;;;;;;;-0.87;100.00;93831.91;1018357;29;20059;-69
2020/12/12 00:59:04;;;;;;;67.70;34.23;;;;;;;-0.87;100.00;93829.34;1018031;29;20031;-69
2020/12/12 00:59:35;;;;;;;66.90;36.03;;;;;;;-0.86;100.00;93824.97;1022189;29;20038;-68
2020/12/12 01:00:05;;;;;;;64.57;32.73;;;;;;;-0.95;100.00;93822.78;1018172;29;20405;-69
2020/12/12 01:00:35;;;;;;;63.30;35.07;;;;;;;-0.84;100.00;93834.00;1026253;28;20112;-70
2020/12/12 01:01:06;;;;;;;64.90;34.77;;;;;;;-0.83;100.00;93838.13;1025866;28;20033;-69
2020/12/12 01:01:36;;;;;;;55.23;31.63;;;;;;;-0.90;100.00;93827.22;1021596;28;20088;-71
2020/12/12 01:02:07;;;;;;;64.40;33.47;;;;;;;-0.83;100.00;93838.13;1025999;28;20038;-68
2020/12/12 01:02:37;;;;;;;61.50;31.43;;;;;;;-0.81;100.00;93832.72;1018178;28;20061;-70
2020/12/12 01:03:08;;;;;;;60.80;32.40;;;;;;;-0.81;100.00;93833.50;1018146;29;20028;-70
2020/12/12 01:03:40;;;;;;;64.83;32.53;;;;;;;-0.81;100.00;93835.31;1026280;28;20100;-68
2020/12/12 01:04:11;;;;;;;61.47;32.47;;;;;;;-0.81;100.00;93828.34;1043596;28;20024;-69
2020/12/12 01:04:41;;;;;;;61.73;33.97;;;;;;;-0.87;100.00;93824.19;1047122;28;20521;-69
2020/12/12 01:05:12;;;;;;;61.70;32.23;;;;;;;-0.81;100.00;93830.94;1045394;28;20048;-70
2020/12/12 01:05:42;;;;;;;61.47;33.40;;;;;;;-0.90;100.00;93813.59;1026259;28;20805;-68
2020/12/12 01:06:13;;;;;;;64.17;35.77;;;;;;;-0.80;100.00;93835.09;1038247;28;20107;-67
2020/12/12 01:06:47;;;;;;;66.18;33.85;;;;;;;-0.86;100.00;93825.72;1032354;28;20061;-69
2020/12/12 01:07:21;;;;;;;60.60;32.80;;;;;;;-0.87;100.00;93824.19;1029974;28;20038;-69
2020/12/12 01:07:52;;;;;;;64.50;33.30;;;;;;;-0.83;100.00;93825.25;1018271;28;20031;-69
2020/12/12 01:08:22;;;;;;;65.20;33.43;;;;;;;-0.81;100.00;93832.72;1027139;28;20485;-70
2020/12/12 01:08:53;;;;;;;63.83;33.27;;;;;;;-0.81;100.00;93832.72;1026039;28;20035;-70
2020/12/12 01:09:23;;;;;;;65.50;32.93;;;;;;;-0.83;100.00;93829.63;1025978;28;20027;-71
2020/12/12 01:09:54;;;;;;;60.47;31.43;;;;;;;-0.83;100.00;93827.84;1026067;28;20034;-70
2020/12/12 01:10:25;;;;;;;62.33;31.97;;;;;;;-0.91;100.00;93817.16;1018274;28;20035;-68
2020/12/12 01:10:55;;;;;;;62.25;32.78;;;;;;;-0.82;100.00;93833.75;1026312;28;20037;-70
2020/12/12 01:11:26;;;;;;;65.73;33.33;;;;;;;-0.97;100.00;93811.19;1029440;28;20549;-67
2020/12/12 01:11:56;;;;;;;69.60;33.90;;;;;;;-0.88;100.00;93832.13;1027188;28;20041;-73
2020/12/12 01:12:27;;;;;;;65.23;33.83;;;;;;;-0.91;100.00;93822.31;1026396;28;20392;-70
2020/12/12 01:12:57;;;;;;;68.27;34.10;;;;;;;-0.86;100.00;93835.25;1029979;28;20693;-70
2020/12/12 01:13:28;;;;;;;63.80;32.30;;;;;;;-0.88;100.00;93832.13;1022297;28;20027;-69
2020/12/12 01:13:58;;;;;;;64.33;33.50;;;;;;;-0.84;100.00;93834.00;1026229;28;20073;-67
2020/12/12 01:14:28;;;;;;;69.77;34.13;;;;;;;-0.83;100.00;93832.97;1030341;28;20518;-69
2020/12/12 01:14:59;;;;;;;71.77;34.83;;;;;;;-0.85;100.00;93834.22;1026162;28;20101;-71
2020/12/12 01:15:29;;;;;;;67.63;33.83;;;;;;;-1.01;100.00;93812.66;1030111;28;20039;-70
2020/12/12 01:16:09;;;;;;;63.83;33.10;;;;;;;-0.96;100.00;93839.25;1021951;29;20043;-69
2020/12/12 01:16:40;;;;;;;62.13;31.85;;;;;;;-0.99;100.00;93832.00;1030172;28;20026;-67
2020/12/12 01:17:10;;;;;;;63.33;31.70;;;;;;;-0.88;100.00;93837.28;1030270;28;20050;-69
2020/12/12 01:17:41;;;;;;;64.63;31.90;;;;;;;-0.90;100.00;93845.25;1027238;28;20097;-69
2020/12/12 01:18:11;;;;;;;69.53;33.57;;;;;;;-0.91;100.00;93846.25;1022593;28;20026;-68
2020/12/12 01:18:42;;;;;;;64.97;33.23;;;;;;;-0.93;100.00;93840.56;1043022;28;20025;-70
2020/12/12 01:19:12;;;;;;;65.13;33.60;;;;;;;-0.93;100.00;93847.53;1043082;28;20562;-69
2020/12/12 01:19:43;;;;;;;60.87;31.80;;;;;;;-0.94;100.00;93849.28;1046803;28;20567;-69
2020/12/12 01:20:13;;;;;;;65.03;34.40;;;;;;;-0.98;100.00;93840.50;1030182;28;20034;-70
2020/12/12 01:20:44;;;;;;;64.30;32.77;;;;;;;-1.04;100.00;93829.38;1027909;28;20026;-70
2020/12/12 01:21:17;;;;;;;67.03;32.10;;;;;;;-0.98;100.00;93843.06;1029915;28;20023;-69
2020/12/12 01:21:48;;;;;;;65.75;32.47;;;;;;;-1.09;100.00;93831.88;1028369;28;20155;-69
2020/12/12 01:22:18;;;;;;;71.93;34.57;;;;;;;-1.05;100.00;93838.09;1026046;28;20084;-68
2020/12/12 01:22:49;;;;;;;68.33;32.83;;;;;;;-1.02;100.00;93836.84;1027863;28;20042;-69
2020/12/12 01:23:19;;;;;;;66.73;33.90;;;;;;;-1.11;100.00;93827.97;1022008;29;20742;-70
2020/12/12 01:23:50;;;;;;;59.97;32.00;;;;;;;-1.07;100.00;93829.84;1018054;29;20039;-69
2020/12/12 01:24:20;;;;;;;61.63;32.17;;;;;;;-1.12;100.00;93829.00;1025853;28;20027;-71
2020/12/12 01:24:51;;;;;;;71.53;32.53;;;;;;;-1.05;100.00;93837.31;1025998;28;20031;-68
2020/12/12 01:25:22;;;;;;;70.40;33.97;;;;;;;-1.05;100.00;93834.75;1025958;28;20030;-68
2020/12/12 01:25:52;;;;;;;65.23;33.97;;;;;;;-1.11;100.00;93826.16;1022116;29;20031;-68
2020/12/12 01:26:23;;;;;;;68.47;33.03;;;;;;;-1.07;100.00;93840.13;1022430;28;20038;-69
2020/12/12 01:26:53;;;;;;;71.00;33.50;;;;;;;-1.08;100.00;93838.56;1026049;28;20047;-69
2020/12/12 01:27:24;;;;;;;69.77;34.03;;;;;;;-1.15;100.00;93829.47;1026232;28;20042;-68
2020/12/12 01:27:54;;;;;;;63.90;31.83;;;;;;;-1.11;100.00;93841.59;1026338;28;20516;-68
2020/12/12 01:28:25;;;;;;;65.33;33.83;;;;;;;-1.12;100.00;93842.63;1029048;28;20038;-68
2020/12/12 01:28:55;;;;;;;63.13;33.63;;;;;;;-1.12;100.00;93841.84;1051300;28;20606;-70
2020/12/12 01:29:26;;;;;;;59.97;31.73;;;;;;;-1.15;100.00;93837.94;1051234;28;20028;-68
2020/12/12 01:29:56;;;;;;;68.23;33.67;;;;;;;-1.11;100.00;93843.41;1029972;28;20034;-72
2020/12/12 01:30:27;;;;;;;62.43;32.97;;;;;;;-1.13;100.00;93840.31;1030218;28;20030;-69
2020/12/12 01:30:57;;;;;;;66.80;32.93;;;;;;;-1.13;100.00;93840.31;1029811;28;20046;-68
2020/12/12 01:31:31;;;;;;;63.50;32.80;;;;;;;-1.13;100.00;93843.66;1029823;28;20414;-70
2020/12/12 01:32:01;;;;;;;67.35;33.45;;;;;;;-1.20;100.00;93836.09;1038104;28;20557;-68
2020/12/12 01:32:32;;;;;;;65.20;32.27;;;;;;;-1.14;100.00;93839.53;1049453;28;20089;-70
2020/12/12 01:33:02;;;;;;;62.20;32.40;;;;;;;-1.25;100.00;93828.28;1034011;28;20112;-70
2020/12/12 01:33:33;;;;;;;60.83;31.53;;;;;;;-1.20;100.00;93836.09;1022144;28;20100;-69
2020/12/12 01:34:03;;;;;;;66.23;32.80;;;;;;;-1.16;100.00;93838.97;1025903;28;20030;-70
2020/12/12 01:34:34;;;;;;;68.10;33.03;;;;;;;-1.15;100.00;93839.75;1030087;28;20035;-71
2020/12/12 01:35:04;;;;;;;67.83;33.70;;;;;;;-1.15;100.00;93835.38;1030227;28;20395;-69
2020/12/12 01:35:35;;;;;;;70.77;33.77;;;;;;;-1.17;100.00;93836.63;1034213;28;20022;-68
2020/12/12 01:36:06;;;;;;;67.30;32.90;;;;;;;-1.24;100.00;93823.91;1037970;28;20022;-71
2020/12/12 01:36:37;;;;;;;70.35;34.33;;;;;;;-1.16;100.00;93836.41;1030146;28;20070;-68
2020/12/12 01:37:07;;;;;;;68.43;34.03;;;;;;;-1.25;100.00;93824.94;1030451;28;20035;-70
2020/12/12 01:37:38;;;;;;;67.47;34.10;;;;;;;-1.17;100.00;93828.91;1025878;28;20031;-71
2020/12/12 01:38:09;;;;;;;68.53;33.27;;;;;;;-1.28;100.00;93812.56;1022462;28;20043;-68
2020/12/12 01:38:39;;;;;;;76.55;36.63;;;;;;;-1.20;100.00;93830.94;1025949;28;20042;-70
2020/12/12 01:39:10;;;;;;;72.80;35.20;;;;;;;-1.19;100.00;93831.72;1026280;28;20679;-71
2020/12/12 01:39:43;;;;;;;72.73;33.60;;;;;;;-1.31;100.00;93807.88;1026118;28;20034;-70
2020/12/12 01:40:14;;;;;;;72.22;32.78;;;;;;;-1.23;100.00;93822.94;1026206;28;20047;-72
2020/12/12 01:40:44;;;;;;;72.23;35.63;;;;;;;-1.22;100.00;93827.81;1025866;28;20526;-67
2020/12/12 01:41:16;;;;;;;71.23;33.87;;;;;;;-1.23;100.00;93818.56;1026414;28;20078;-68
2020/12/12 01:41:47;;;;;;;76.80;35.50;;;;;;;-1.28;100.00;93815.91;1021724;28;20039;-67
2020/12/12 01:42:17;;;;;;;67.47;33.73;;;;;;;-1.22;100.00;93827.81;1026401;28;20508;-70
2020/12/12 01:42:48;;;;;;;65.00;34.03;;;;;;;-1.23;100.00;93823.69;1030137;28;20030;-69
2020/12/12 01:43:18;;;;;;;65.47;34.10;;;;;;;-1.21;100.00;93831.16;1034227;28;20436;-68
2020/12/12 01:43:52;;;;;;;72.80;33.83;;;;;;;-1.30;100.00;93815.38;1034328;28;20026;-68
2020/12/12 01:44:22;;;;;;;67.53;35.03;;;;;;;-1.27;100.00;93814.91;1038034;28;20523;-68
2020/12/12 01:44:56;;;;;;;76.07;34.53;;;;;;;-1.23;100.00;93823.69;1025958;28;20070;-70
2020/12/12 01:45:27;;;;;;;66.53;34.25;;;;;;;-1.24;100.00;93824.72;1026037;28;20085;-68
2020/12/12 01:45:57;;;;;;;65.73;31.07;;;;;;;-1.32;100.00;93807.09;1029932;28;20582;-69
2020/12/12 01:46:28;;;;;;;69.67;33.07;;;;;;;-1.22;100.00;93827.81;1030079;28;20122;-69
2020/12/12 01:46:58;;;;;;;70.10;34.43;;;;;;;-1.23;100.00;93820.34;1021830;29;20031;-69
2020/12/12 01:47:29;;;;;;;66.27;32.73;;;;;;;-1.24;100.00;93811.88;1030333;28;20395;-69
2020/12/12 01:48:00;;;;;;;73.20;34.00;;;;;;;-1.21;100.00;93816.53;1030175;28;20061;-66
2020/12/12 01:48:30;;;;;;;65.10;32.67;;;;;;;-1.25;100.00;93810.28;1030416;28;20034;-70
2020/12/12 01:49:01;;;;;;;65.93;31.67;;;;;;;-1.24;100.00;93811.88;1029913;28;20412;-71
2020/12/12 01:49:31;;;;;;;65.97;32.43;;;;;;;-1.23;100.00;93805.69;1022315;28;20023;-69
2020/12/12 01:50:05;;;;;;;70.20;34.07;;;;;;;-1.17;100.00;93816.03;1022052;28;20039;-71
2020/12/12 01:50:36;;;;;;;71.35;36.15;;;;;;;-1.25;100.00;93804.38;1026585;28;20130;-69
2020/12/12 01:51:06;;;;;;;64.97;33.00;;;;;;;-1.28;100.00;93797.88;1033695;28;20426;-71
2020/12/12 01:51:37;;;;;;;66.90;33.30;;;;;;;-1.15;100.00;93822.50;1029250;28;20030;-68
2020/12/12 01:52:07;;;;;;;64.77;34.40;;;;;;;-1.23;100.00;93810.84;1026095;28;20022;-69
2020/12/12 01:52:38;;;;;;;64.70;33.20;;;;;;;-1.15;100.00;93811.44;1026013;28;20023;-69
2020/12/12 01:53:08;;;;;;;63.93;32.07;;;;;;;-1.12;100.00;93810.97;1025621;28;20018;-69
2020/12/12 01:53:39;;;;;;;63.87;32.67;;;;;;;-1.36;100.00;93779.53;1026076;28;20070;-69
2020/12/12 01:54:09;;;;;;;62.83;32.60;;;;;;;-1.08;100.00;93822.34;1026064;28;20023;-68
2020/12/12 01:54:40;;;;;;;60.93;31.00;;;;;;;-1.09;100.00;93818.22;1025793;28;20084;-69
2020/12/12 01:55:10;;;;;;;61.20;31.60;;;;;;;-1.09;100.00;93823.38;1022025;28;20627;-70
2020/12/12 01:55:46;;;;;;;69.10;33.93;;;;;;;-1.11;100.00;93812.53;1030034;28;20015;-68
2020/12/12 01:56:17;;;;;;;60.88;32.92;;;;;;;-1.13;100.00;93809.44;1029820;28;20038;-69
2020/12/12 01:56:48;;;;;;;63.53;33.40;;;;;;;-1.06;100.00;93825.47;1051163;28;20119;-71
2020/12/12 01:57:22;;;;;;;64.90;32.97;;;;;;;-1.14;100.00;93808.66;1025770;28;20027;-70
2020/12/12 01:57:53;;;;;;;63.58;32.90;;;;;;;-1.09;100.00;93818.22;1026113;28;20036;-69
2020/12/12 01:58:23;;;;;;;64.82;33.63;;;;;;;-1.06;100.00;93818.53;1025975;28;20062;-69
2020/12/12 01:58:54;;;;;;;62.27;32.17;;;;;;;-1.05;100.00;93821.88;1026664;28;20398;-71
2020/12/12 01:59:24;;;;;;;62.40;32.17;;;;;;;-1.12;100.00;93808.41;1030425;28;20026;-72
2020/12/12 01:59:55;;;;;;;66.40;33.30;;;;;;;-1.13;100.00;93802.47;1034366;28;20858;-69
2020/12/12 02:00:25;;;;;;;73.27;35.23;;;;;;;-1.04;100.00;93820.84;1030410;28;20030;-69
2020/12/12 02:00:56;;;;;;;62.67;32.17;;;;;;;-1.05;100.00;93822.66;1026699;28;20034;-65
2020/12/12 02:01:27;;;;;;;69.40;32.97;;;;;;;-1.05;100.00;93814.16;1027417;28;20035;-70
2020/12/12 02:01:58;;;;;;;61.73;33.10;;;;;;;-1.05;100.00;93821.88;1027473;28;20474;-67
2020/12/12 02:02:28;;;;;;;61.50;30.88;;;;;;;-1.11;100.00;93809.94;1031140;28;20038;-69
2020/12/12 02:02:59;;;;;;;60.77;31.50;;;;;;;-1.09;100.00;93808.69;1027068;28;20060;-70
2020/12/12 02:03:29;;;;;;;68.50;34.20;;;;;;;-1.11;100.00;93813.28;1026631;28;20105;-68
2020/12/12 02:04:00;;;;;;;67.33;33.20;;;;;;;-1.12;100.00;93800.69;1030900;28;20011;-69
2020/12/12 02:04:30;;;;;;;61.17;31.80;;;;;;;-1.09;100.00;93816.41;1026925;28;20053;-70
2020/12/12 02:05:01;;;;;;;63.30;32.87;;;;;;;-1.09;100.00;93816.41;1026476;28;20043;-71
2020/12/12 02:05:43;;;;;;;64.37;31.87;;;;;;;-1.09;100.00;93810.50;1026567;28;20531;-70
2020/12/12 02:06:14;;;;;;;63.88;31.42;;;;;;;-1.14;100.00;93807.84;1030813;28;20380;-70
2020/12/12 02:06:44;;;;;;;58.77;29.57;;;;;;;-1.11;100.00;93817.66;1026598;28;20042;-68
2020/12/12 02:07:16;;;;;;;64.93;33.00;;;;;;;-1.11;100.00;93820.25;1043590;28;20415;-72
2020/12/12 02:07:46;;;;;;;63.88;31.35;;;;;;;-1.12;100.00;93816.13;1022598;28;20051;-71
2020/12/12 02:08:17;;;;;;;65.23;32.47;;;;;;;-1.13;100.00;93814.56;1022795;28;20047;-71
2020/12/12 02:08:51;;;;;;;65.22;33.28;;;;;;;-1.18;100.00;93802.41;1043988;28;20672;-69
2020/12/12 02:09:22;;;;;;;60.33;31.98;;;;;;;-1.19;100.00;93811.91;1041167;28;20043;-68
2020/12/12 02:09:53;;;;;;;58.25;30.42;;;;;;;-1.08;100.00;93806.91;1051677;28;20065;-68
2020/12/12 02:10:24;;;;;;;64.40;31.80;;;;;;;-1.33;100.00;93784.19;1051982;28;20489;-73
2020/12/12 02:10:54;;;;;;;58.00;30.97;;;;;;;-1.09;100.00;93820.78;1026821;28;20531;-68
2020/12/12 02:11:24;;;;;;;59.70;31.37;;;;;;;-1.22;100.00;93807.25;1030019;28;20023;-69
2020/12/12 02:11:57;;;;;;;59.07;31.00;;;;;;;-1.07;100.00;93821.34;1026314;28;20039;-68
2020/12/12 02:12:28;;;;;;;60.90;31.20;;;;;;;-1.07;100.00;93814.41;1026896;28;20137;-68
2020/12/12 02:12:58;;;;;;;56.47;30.57;;;;;;;-1.15;100.00;93803.72;1056032;28;20081;-69
2020/12/12 02:13:29;;;;;;;55.67;29.80;;;;;;;-1.05;100.00;93821.88;1026524;28;20031;-70
2020/12/12 02:13:59;;;;;;;59.03;31.83;;;;;;;-1.09;100.00;93811.28;1030495;28;20056;-68
2020/12/12 02:14:31;;;;;;;58.77;31.20;;;;;;;-1.05;100.00;93827.03;1030727;28;20018;-70
2020/12/12 02:15:02;;;;;;;58.85;30.42;;;;;;;-1.06;100.00;93823.66;1030404;28;20088;-69
2020/12/12 02:15:33;;;;;;;61.07;31.93;;;;;;;-1.04;100.00;93821.66;1026760;28;20031;-71
2020/12/12 02:16:03;;;;;;;55.73;30.40;;;;;;;-1.03;100.00;93822.44;1027044;28;20493;-69
2020/12/12 02:16:50;;;;;;;51.37;29.67;;;;;;;-1.01;100.00;93820.38;1035163;28;20018;-69
2020/12/12 02:17:20;;;;;;;54.13;30.02;;;;;;;-1.03;100.00;93825.00;1036911;28;20100;-69
2020/12/12 02:17:51;;;;;;;61.43;29.83;;;;;;;-1.01;100.00;93822.94;1034780;28;20022;-70
2020/12/12 02:18:22;;;;;;;54.83;29.63;;;;;;;-1.00;100.00;93820.16;1030317;28;20033;-70
2020/12/12 02:18:53;;;;;;;54.80;30.67;;;;;;;-1.00;100.00;93824.53;1024145;28;20671;-71
2020/12/12 02:19:23;;;;;;;54.80;29.40;;;;;;;-0.98;100.00;93822.47;1030942;28;20026;-69
2020/12/12 02:19:54;;;;;;;57.83;30.57;;;;;;;-0.98;100.00;93820.69;1031057;28;20127;-69
2020/12/12 02:20:24;;;;;;;54.70;29.70;;;;;;;-1.06;100.00;93810.03;1034667;28;20054;-69